Detalii statie AGROSAMI SACALAZ [00001988]

Toti senzorii

Date Temperatura solului [C]Precipitatii [mm]Voltaj baterie [mV]Leaf Wetness [Min]HC Air temperature [C]HC Relative humidity [%]Punctul de roua [C]
medieminmaxsumaultimatimpmedieminmaxmediemediemin
2017-06-25 06:00:00 0 6982 17.31 17 18.06 33.33 5.6 0
2017-06-25 07:00:00 0 7000 19.63 18.3 22.07 16.66 3.6 0
2017-06-25 08:00:00 0 7070 25.12 22.65 27.51 77.73 20.6 19.5
2017-06-25 09:00:00 0 7186 28.64 27.41 30.16 58.23 19.4 18.9
2017-06-25 10:00:00 0 7314 31.6 29.9 34.08 53 20.6 19.8
2017-06-25 11:00:00 0 7314 33.71 32.57 34.71 47.19 20.6 18.8
2017-06-25 12:00:00 0 7314 35.09 34.07 36.2 43.07 20.3 19.6
2017-06-25 13:00:00 0 7314 36.03 34.64 37.43 39.34 19.7 18.9
2017-06-25 14:00:00 0 7314 36.43 34.53 37.96 38.13 19.6 18.5
2017-06-25 15:00:00 0 7314 37.5 35.43 38.52 36.67 19.9 18.9
2017-06-25 16:00:00 0 7314 36.76 36.31 37.2 37.3 19.6 18.7
2017-06-25 17:00:00 0 7324 36.43 35.65 37.1 36.75 19 18
2017-06-25 18:00:00 0 7304 34.96 34.21 35.83 37.45 18 17.7
2017-06-25 19:00:00 0 7196 33.33 32.24 34.06 39.5 17.3 17.1
2017-06-25 20:00:00 0 7040 30.23 28.53 32.08 48.11 17.8 17.4
2017-06-25 21:00:00 0 7020 27.15 26.45 28.34 58.43 18 17.7
2017-06-25 22:00:00 0 7000 25.9 25.36 26.69 65.85 18.8 18.5
2017-06-25 23:00:00 0 7000 24.41 23.18 25.64 76.51 19.8 19.8
2017-06-26 00:00:00 0 6992 23.24 22.82 23.51 83.58 20.1 20
2017-06-26 01:00:00 0 6992 23.43 23.08 23.78 85.39 20.6 20.3
2017-06-26 02:00:00 0 6982 22.84 22.35 23.24 85.82 20.2 19.8
2017-06-26 03:00:00 0 6972 21.83 21.49 22.25 97.42 21.3 20.7
2017-06-26 04:00:00 0.8 6982 20.24 19.58 21.23 100 20.2 19.5
2017-06-26 05:00:00 0.4 6962 19.39 19 19.83 41.66 0
2017-06-26 06:00:00 0 6972 19.54 19.1 19.86 0 0 0
2017-06-26 07:00:00 0 7000 19.75 19.62 20.09 0 0 0
2017-06-26 08:00:00 0.4 7088 20.45 20.24 20.67 0 0 0
2017-06-26 09:00:00 0.4 7206 20.36 20.03 20.65 0 0 0
2017-06-26 10:00:00 0 7314 22.43 20.69 24.89 0.53 0
2017-06-26 11:00:00 0 7324 25.38 23.71 26.6 0.51 0
2017-06-26 12:00:00 0 7324 26.47 25.25 28.22 7.94 0
2017-06-26 13:00:00 0 7294 27.41 26.07 29.53 0 0 0
2017-06-26 14:00:00 0 7324 28.66 26.19 30.46 0 0 0
2017-06-26 15:00:00 0 7324 28.82 27.75 29.91 0 0 0
2017-06-26 16:00:00 0 7324 29.18 27.78 30.14 0.59 0
2017-06-26 17:00:00 0 7324 30.31 29.15 31.71 5.64 0
2017-06-26 18:00:00 0 7254 29.24 27.84 30.24 18.54 0
2017-06-26 19:00:00 0 7186 28.79 27.81 29.56 4.8 -0.2 0